Time;durP1;ratioP1;P1;durP2;ratioP2;P2;SDS_P1;SDS_P2;PMS_P1;PMS_P2;Temp;Humidity;BMP_temperature;BMP_pressure;BME280_temperature;BME280_humidity;BME280_pressure;Samples;Min_cycle;Max_cycle;Signal;HPM_P1;HPM_P2
2020/12/02 00:02:13;;;;;;;;;;;;;;;28.03;23.64;101451.00;5117760;27;822;-21
2020/12/02 00:04:38;;;;;;;;;;;;;;;27.79;24.42;101450.84;5117300;27;816;-45
2020/12/02 00:07:04;;;;;;;;;;;;;;;28.80;22.77;101459.50;5116672;28;802;-21
2020/12/02 00:09:29;;;;;;;;;;;;;;;28.94;22.75;101460.63;5116216;28;819;-20
2020/12/02 00:11:54;;;;;;;;;;;;;;;28.86;22.82;101461.53;5116727;28;1109;-47
2020/12/02 00:14:24;;;;;;;;;;;;;;;28.84;22.71;101456.28;5117324;28;952;-46
2020/12/02 00:16:50;;;;;;;;;;;;;;;28.30;23.01;101444.31;5117493;28;790;-23
2020/12/02 00:19:16;;;;;;;;;;;;;;;27.98;23.73;101448.78;5117025;28;1913;-21
2020/12/02 00:21:41;;;;;;;;;;;;;;;28.16;23.49;101453.16;5117513;28;747;-43
2020/12/02 00:24:06;;;;;;;;;;;;;;;27.41;24.53;101459.41;5115941;28;1492;-21
2020/12/02 00:26:31;;;;;;;;;;;;;;;28.46;23.03;101451.53;5116717;28;937;-23
2020/12/02 00:28:57;;;;;;;;;;;;;;;28.43;23.33;101461.88;5117782;28;945;-22
2020/12/02 00:31:23;;;;;;;;;;;;;;;28.77;22.90;101462.59;5117298;28;743;-22
2020/12/02 00:33:48;;;;;;;;;;;;;;;28.84;22.93;101469.81;5116859;28;827;-21
2020/12/02 00:36:13;;;;;;;;;;;;;;;28.96;22.79;101466.72;5117420;28;1200;-22
2020/12/02 00:38:39;;;;;;;;;;;;;;;28.94;22.36;101463.34;5117245;28;834;-21
2020/12/02 00:41:04;;;;;;;;;;;;;;;29.02;22.27;101460.63;5116689;28;1968;-22
2020/12/02 00:43:29;;;;;;;;;;;;;;;29.24;22.04;101466.22;5117360;28;767;-30
2020/12/02 00:45:58;;;;;;;;;;;;;;;29.11;22.19;101453.28;5117185;28;842;-34
2020/12/02 00:48:24;;;;;;;;;;;;;;;29.18;22.23;101459.66;5116780;28;891;-21
2020/12/02 00:50:49;;;;;;;;;;;;;;;28.91;22.22;101461.00;5117529;28;724;-22
2020/12/02 00:53:16;;;;;;;;;;;;;;;28.43;23.13;101464.56;5119970;28;870;-21
2020/12/02 00:55:41;;;;;;;;;;;;;;;28.29;23.50;101466.13;5120387;28;1016;-21
2020/12/02 00:58:08;;;;;;;;;;;;;;;28.72;22.89;101458.56;5121371;28;865;-33
2020/12/02 01:00:35;;;;;;;;;;;;;;;28.88;22.71;101455.94;5119533;28;1906;-22
2020/12/02 01:03:03;;;;;;;;;;;;;;;28.78;22.67;101467.81;5119838;28;738;-21
2020/12/02 01:05:30;;;;;;;;;;;;;;;28.93;22.64;101467.06;5120013;28;1224;-21
2020/12/02 01:07:57;;;;;;;;;;;;;;;29.07;22.21;101463.63;5120942;28;750;-21
2020/12/02 01:10:22;;;;;;;;;;;;;;;29.03;22.59;101456.88;5119252;28;1438;-21
2020/12/02 01:12:48;;;;;;;;;;;;;;;29.19;22.19;101458.66;5120944;28;775;-23
2020/12/02 01:15:16;;;;;;;;;;;;;;;29.16;22.50;101456.28;5121098;28;724;-23
2020/12/02 01:17:41;;;;;;;;;;;;;;;29.27;22.24;101451.47;5120486;28;1287;-33
2020/12/02 01:20:07;;;;;;;;;;;;;;;28.99;22.43;101454.72;5119977;28;1980;-23
2020/12/02 01:22:34;;;;;;;;;;;;;;;28.34;22.85;101447.53;5120618;28;735;-23
2020/12/02 01:25:05;;;;;;;;;;;;;;;28.37;23.23;101455.31;5119184;28;980;-23
2020/12/02 01:27:32;;;;;;;;;;;;;;;28.59;23.05;101463.69;5120703;28;810;-23
2020/12/02 01:29:58;;;;;;;;;;;;;;;28.09;23.30;101453.81;5119704;28;750;-23
2020/12/02 01:32:23;;;;;;;;;;;;;;;27.66;24.09;101470.22;5120186;28;820;-23
2020/12/02 01:34:49;;;;;;;;;;;;;;;27.90;23.91;101463.16;5120756;28;1189;-23
2020/12/02 01:37:22;;;;;;;;;;;;;;;27.69;24.29;101455.59;5120488;28;755;-22
2020/12/02 01:39:50;;;;;;;;;;;;;;;28.09;23.84;101453.81;5119851;28;1901;-35
2020/12/02 01:42:15;;;;;;;;;;;;;;;28.53;23.25;101457.09;5119923;28;882;-23
2020/12/02 01:44:40;;;;;;;;;;;;;;;28.71;23.08;101456.03;5120376;28;803;-46
2020/12/02 01:47:29;;;;;;;;;;;;;;;28.79;22.86;101456.00;5120038;28;796;-29
2020/12/02 01:50:03;;;;;;;;;;;;;;;29.03;22.68;101447.94;5111819;28;1403;-24
2020/12/02 01:52:38;;;;;;;;;;;;;;;28.95;22.62;101459.59;5120200;28;783;-48
2020/12/02 01:55:03;;;;;;;;;;;;;;;28.94;22.40;101449.81;5119594;28;932;-48
2020/12/02 01:57:30;;;;;;;;;;;;;;;28.95;22.70;101459.59;5118570;28;822;-23
2020/12/02 02:00:01;;;;;;;;;;;;;;;28.98;22.58;101450.31;5120133;28;1964;-23
2020/12/02 02:02:45;;;;;;;;;;;;;;;28.92;22.53;101446.41;5119624;28;763;-22
2020/12/02 02:05:15;;;;;;;;;;;;;;;27.86;23.58;101440.19;5117421;28;823;-38
2020/12/02 02:07:40;;;;;;;;;;;;;;;27.53;24.35;101445.59;5119748;28;905;-44
2020/12/02 02:10:08;;;;;;;;;;;;;;;28.35;23.02;101450.06;5119161;28;953;-21
2020/12/02 02:12:33;;;;;;;;;;;;;;;28.70;22.87;101449.75;5119857;28;739;-21
2020/12/02 02:15:23;;;;;;;;;;;;;;;28.57;22.81;101444.06;5119911;28;826;-22
2020/12/02 02:17:58;;;;;;;;;;;;;;;28.62;22.65;101446.25;5119441;28;1279;-21
2020/12/02 02:20:27;;;;;;;;;;;;;;;28.60;22.94;101447.28;5119785;28;1909;-21
2020/12/02 02:22:52;;;;;;;;;;;;;;;28.63;22.70;101442.53;5119818;28;739;-22
2020/12/02 02:25:18;;;;;;;;;;;;;;;28.64;22.99;101433.38;5119035;28;968;-22
2020/12/02 02:27:43;;;;;;;;;;;;;;;28.87;22.43;101432.56;5119626;28;889;-23
2020/12/02 02:30:08;;;;;;;;;;;;;;;28.84;22.96;101426.47;5119429;28;814;-21
2020/12/02 02:32:34;;;;;;;;;;;;;;;28.96;22.47;101426.09;5119020;28;850;-21
2020/12/02 02:34:59;;;;;;;;;;;;;;;28.93;22.79;101421.00;5119424;28;1202;-22
2020/12/02 02:37:28;;;;;;;;;;;;;;;28.90;22.58;101419.53;5119204;28;755;-21
2020/12/02 02:39:53;;;;;;;;;;;;;;;29.15;22.34;101423.94;5118928;28;1968;-46
2020/12/02 02:42:32;;;;;;;;;;;;;;;28.88;22.48;101418.03;5119264;28;743;-42
2020/12/02 02:44:58;;;;;;;;;;;;;;;28.27;22.97;101419.47;5119427;28;739;-43
2020/12/02 02:47:24;;;;;;;;;;;;;;;28.35;23.51;101416.75;5118930;28;826;-21
2020/12/02 02:49:49;;;;;;;;;;;;;;;28.83;22.56;101422.09;5119290;28;759;-21
2020/12/02 02:52:14;;;;;;;;;;;;;;;28.93;22.75;101427.28;5118541;28;819;-49
2020/12/02 02:54:40;;;;;;;;;;;;;;;28.80;22.82;101422.47;5118188;28;1199;-27
2020/12/02 02:57:05;;;;;;;;;;;;;;;28.78;22.91;101432.63;5118980;28;755;-21
2020/12/02 02:59:30;;;;;;;;;;;;;;;28.90;22.73;101435.78;5117504;28;1967;-21
2020/12/02 03:01:56;;;;;;;;;;;;;;;28.99;22.79;101424.91;5118486;28;843;-21
2020/12/02 03:04:21;;;;;;;;;;;;;;;29.08;22.69;101423.81;5118641;28;675;-21
2020/12/02 03:06:47;;;;;;;;;;;;;;;29.24;22.44;101432.88;5118738;28;779;-47
2020/12/02 03:09:12;;;;;;;;;;;;;;;29.28;21.94;101429.59;5118390;28;760;-21
2020/12/02 03:11:37;;;;;;;;;;;;;;;29.31;22.09;101429.25;5118229;28;949;-23
2020/12/02 03:14:03;;;;;;;;;;;;;;;29.42;21.79;101425.28;5117385;28;807;-21
2020/12/02 03:16:28;;;;;;;;;;;;;;;28.68;22.38;101423.88;5118186;28;811;-22
2020/12/02 03:18:57;;;;;;;;;;;;;;;28.29;23.54;101426.41;5118458;28;1251;-46
2020/12/02 03:21:22;;;;;;;;;;;;;;;28.55;23.38;101428.00;5117061;28;1973;-46
2020/12/02 03:23:47;;;;;;;;;;;;;;;28.85;22.72;101424.63;5117274;28;787;-25
2020/12/02 03:26:13;;;;;;;;;;;;;;;28.83;22.88;101430.22;5117721;28;991;-21
2020/12/02 03:28:38;;;;;;;;;;;;;;;28.89;22.77;101417.84;5118387;28;830;-21
2020/12/02 03:31:04;;;;;;;;;;;;;;;28.96;22.47;101420.69;5118081;28;794;-22
2020/12/02 03:33:29;;;;;;;;;;;;;;;29.11;22.23;101419.94;5116728;28;1285;-48
2020/12/02 03:35:54;;;;;;;;;;;;;;;29.21;22.50;101412.41;5118248;28;1134;-46
2020/12/02 03:38:20;;;;;;;;;;;;;;;29.13;22.36;101431.44;5117933;28;791;-47
2020/12/02 03:40:45;;;;;;;;;;;;;;;29.24;22.25;101432.88;5117511;28;1897;-47
2020/12/02 03:43:10;;;;;;;;;;;;;;;29.16;22.18;101431.91;5118038;28;760;-47
2020/12/02 03:45:39;;;;;;;;;;;;;;;29.34;22.09;101438.91;5117790;28;743;-25
2020/12/02 03:48:05;;;;;;;;;;;;;;;29.39;21.93;101441.06;5117908;28;735;-47
2020/12/02 03:50:30;;;;;;;;;;;;;;;28.57;22.70;101442.22;5118012;28;817;-47
2020/12/02 03:52:55;;;;;;;;;;;;;;;28.51;22.96;101444.78;5117460;28;870;-38
2020/12/02 03:55:20;;;;;;;;;;;;;;;28.70;23.02;101449.75;5117176;28;1020;-47
2020/12/02 03:57:46;;;;;;;;;;;;;;;28.92;22.92;101449.13;5117880;28;755;-21
2020/12/02 04:00:12;;;;;;;;;;;;;;;28.98;22.61;101450.31;5117279;28;1961;-34
2020/12/02 04:02:37;;;;;;;;;;;;;;;28.98;22.84;101445.72;5117626;28;807;-25
2020/12/02 04:05:03;;;;;;;;;;;;;;;29.16;22.60;101442.72;5117746;28;771;-25
2020/12/02 04:07:28;;;;;;;;;;;;;;;29.19;22.62;101450.53;5116888;28;842;-24
2020/12/02 04:09:54;;;;;;;;;;;;;;;29.19;22.50;101446.97;5117321;28;1004;-23
2020/12/02 04:12:19;;;;;;;;;;;;;;;29.30;22.25;101453.81;5117523;28;783;-25
2020/12/02 04:14:44;;;;;;;;;;;;;;;29.37;22.75;101465.63;5117072;28;767;-25
2020/12/02 04:17:09;;;;;;;;;;;;;;;29.45;22.46;101449.31;5117508;28;807;-43
2020/12/02 04:19:35;;;;;;;;;;;;;;;29.14;22.30;101460.19;5117372;28;1980;-25
2020/12/02 04:22:00;;;;;;;;;;;;;;;28.48;23.19;101449.50;5116843;28;802;-24
2020/12/02 04:24:26;;;;;;;;;;;;;;;28.37;23.58;101455.31;5117387;28;783;-27
2020/12/02 04:26:51;;;;;;;;;;;;;;;28.04;24.58;101447.25;5116252;28;1484;-36
2020/12/02 04:29:17;;;;;;;;;;;;;;;28.81;23.33;101461.22;5116767;28;850;-25
2020/12/02 04:31:42;;;;;;;;;;;;;;;29.18;22.69;101456.09;5116701;28;889;-27
2020/12/02 04:34:07;;;;;;;;;;;;;;;29.04;23.00;101458.59;5117354;28;763;-27
2020/12/02 04:36:32;;;;;;;;;;;;;;;24.22;19.23;101453.59;5117021;28;1245;-25
2020/12/02 04:38:58;;;;;;;;;;;;;;;21.80;23.05;101450.72;5116986;28;751;-26
2020/12/02 04:41:23;;;;;;;;;;;;;;;20.84;21.51;101455.69;5117048;28;1910;-44
2020/12/02 04:43:49;;;;;;;;;;;;;;;20.00;22.02;101462.19;5115793;28;1498;-44
2020/12/02 04:46:15;;;;;;;;;;;;;;;19.55;21.89;101448.53;5116986;28;850;-25
2020/12/02 04:48:41;;;;;;;;;;;;;;;19.90;21.41;101451.34;5115982;28;790;-46
2020/12/02 04:51:14;;;;;;;;;;;;;;;19.56;21.26;101458.25;5116883;28;854;-24
2020/12/02 04:53:40;;;;;;;;;;;;;;;19.38;21.72;101459.63;5117184;28;743;-25
2020/12/02 04:56:05;;;;;;;;;;;;;;;19.26;21.36;101462.22;5103497;28;954;-33
2020/12/02 04:58:31;;;;;;;;;;;;;;;19.74;21.40;101460.50;5095581;28;768;-46
2020/12/02 05:01:14;;;;;;;;;;;;;;;19.81;21.06;101450.22;5096300;28;1906;-27
2020/12/02 05:03:46;;;;;;;;;;;;;;;20.47;20.58;101461.31;5096265;28;894;-26
2020/12/02 05:06:11;;;;;;;;;;;;;;;21.98;18.44;101459.03;5116994;28;1391;-26
2020/12/02 05:08:36;;;;;;;;;;;;;;;21.44;19.41;101472.41;5122022;27;763;-25
2020/12/02 05:11:02;;;;;;;;;;;;;;;19.86;20.99;101456.06;5124984;27;960;-26
2020/12/02 05:13:27;;;;;;;;;;;;;;;18.43;22.77;101451.19;5115609;28;1236;-27
2020/12/02 05:16:18;;;;;;;;;;;;;;;19.01;21.46;101466.66;5116716;28;799;-30
2020/12/02 05:18:44;;;;;;;;;;;;;;;20.02;19.94;101466.41;5113726;28;1736;-26
2020/12/02 05:21:18;;;;;;;;;;;;;;;18.85;21.45;101475.75;5116625;28;1969;-25
2020/12/02 05:23:44;;;;;;;;;;;;;;;19.07;21.94;101476.88;5130508;28;818;-26
2020/12/02 05:26:18;;;;;;;;;;;;;;;19.46;21.09;101483.94;5124249;27;928;-42
2020/12/02 05:28:44;;;;;;;;;;;;;;;21.64;19.88;101476.94;5116503;28;807;-37
2020/12/02 05:31:23;;;;;;;;;;;;;;;23.34;19.41;101490.22;5115185;28;1262;-40
2020/12/02 05:33:48;;;;;;;;;;;;;;;23.45;22.18;101486.59;5115477;28;861;-26
2020/12/02 05:36:32;;;;;;;;;;;;;;;23.69;22.03;101490.72;5115161;28;1147;-28
2020/12/02 05:39:02;;;;;;;;;;;;;;;24.64;20.08;101495.31;5115824;28;521;-27
2020/12/02 05:41:28;;;;;;;;;;;;;;;24.17;20.57;101507.78;5120152;28;1906;-24
2020/12/02 05:43:53;;;;;;;;;;;;;;;23.87;21.48;101501.59;5118950;28;846;-24
2020/12/02 05:46:22;;;;;;;;;;;;;;;23.87;22.83;101498.91;5120230;28;909;-30
2020/12/02 05:48:47;;;;;;;;;;;;;;;23.92;21.38;101493.09;5120384;28;739;-26
2020/12/02 05:51:16;;;;;;;;;;;;;;;23.91;21.68;101499.44;5119719;28;498;-25
2020/12/02 05:53:44;;;;;;;;;;;;;;;23.99;21.77;101498.75;5120131;28;822;-35
2020/12/02 05:56:10;;;;;;;;;;;;;;;24.06;20.91;101500.69;5106170;28;970;-37
2020/12/02 05:58:35;;;;;;;;;;;;;;;24.16;20.89;101495.34;5099366;28;739;-24
2020/12/02 06:01:00;;;;;;;;;;;;;;;24.07;20.29;101499.69;5099534;28;1913;-41
2020/12/02 06:03:32;;;;;;;;;;;;;;;24.35;21.19;101498.97;5099694;28;873;-30
2020/12/02 06:06:04;;;;;;;;;;;;;;;24.50;21.47;101509.25;5098952;28;794;-24
2020/12/02 06:08:32;;;;;;;;;;;;;;;24.71;21.38;101506.34;5099607;28;759;-43
2020/12/02 06:10:59;;;;;;;;;;;;;;;24.61;21.77;101506.38;5110646;28;946;-25
2020/12/02 06:13:35;;;;;;;;;;;;;;;24.61;21.81;101509.06;5117780;28;1264;-24
2020/12/02 06:16:00;;;;;;;;;;;;;;;24.66;21.91;101511.31;5119798;28;775;-42
2020/12/02 06:18:27;;;;;;;;;;;;;;;24.76;22.18;101506.75;5118218;28;1153;-26
2020/12/02 06:20:53;;;;;;;;;;;;;;;24.62;22.52;101507.25;5119250;28;1905;-28
2020/12/02 06:23:18;;;;;;;;;;;;;;;24.41;22.81;101514.53;5119602;28;775;-26
2020/12/02 06:25:49;;;;;;;;;;;;;;;24.23;23.10;101514.44;5119578;28;945;-24
2020/12/02 06:28:30;;;;;;;;;;;;;;;24.18;23.16;101517.56;5119093;28;770;-24
2020/12/02 06:31:01;;;;;;;;;;;;;;;24.19;22.42;101513.88;5119655;28;819;-24
2020/12/02 06:33:33;;;;;;;;;;;;;;;24.18;22.69;101527.44;5119623;28;818;-24
2020/12/02 06:36:09;;;;;;;;;;;;;;;24.56;22.70;101532.88;5118849;28;1067;-39
2020/12/02 06:38:35;;;;;;;;;;;;;;;24.43;22.87;101538.56;5119411;28;874;-25
2020/12/02 06:41:00;;;;;;;;;;;;;;;24.36;23.14;101529.41;5119283;28;1964;-37
2020/12/02 06:43:29;;;;;;;;;;;;;;;24.31;23.09;101533.38;5118800;28;759;-24
2020/12/02 06:45:54;;;;;;;;;;;;;;;24.32;23.01;101539.59;5119011;28;850;-40
2020/12/02 06:48:31;;;;;;;;;;;;;;;24.28;22.55;101530.97;5119147;28;766;-24
2020/12/02 06:50:57;;;;;;;;;;;;;;;24.29;22.98;101529.16;5118128;27;802;-28
2020/12/02 06:53:22;;;;;;;;;;;;;;;24.54;22.99;101530.34;5119492;28;740;-24
2020/12/02 06:55:49;;;;;;;;;;;;;;;24.72;23.25;101536.78;5118845;28;1004;-30
2020/12/02 06:58:17;;;;;;;;;;;;;;;24.79;23.03;101535.22;5118932;28;771;-26
2020/12/02 07:00:43;;;;;;;;;;;;;;;24.87;23.00;101538.03;5119502;28;1906;-26
2020/12/02 07:03:24;;;;;;;;;;;;;;;24.97;23.36;101534.47;5118780;28;848;-29
2020/12/02 07:05:54;;;;;;;;;;;;;;;24.98;23.04;101534.31;5118430;28;834;-26
2020/12/02 07:08:19;;;;;;;;;;;;;;;24.94;22.99;101532.91;5117657;28;763;-25
2020/12/02 07:10:59;;;;;;;;;;;;;;;24.98;23.00;101528.91;5118515;28;993;-25
2020/12/02 07:13:24;;;;;;;;;;;;;;;25.00;23.12;101539.53;5118331;28;818;-28
2020/12/02 07:15:50;;;;;;;;;;;;;;;25.02;23.24;101542.94;5117842;28;764;-41
2020/12/02 07:18:19;;;;;;;;;;;;;;;25.10;23.41;101536.78;5118285;27;1066;-25
2020/12/02 07:20:45;;;;;;;;;;;;;;;25.09;23.30;101544.00;5118187;28;1969;-24
2020/12/02 07:23:11;;;;;;;;;;;;;;;25.13;23.28;101547.25;5118788;28;779;-39
2020/12/02 07:25:36;;;;;;;;;;;;;;;25.26;23.48;101546.91;5118063;28;973;-25
2020/12/02 07:28:01;;;;;;;;;;;;;;;25.23;23.50;101541.81;5118153;28;794;-40
2020/12/02 07:30:30;;;;;;;;;;;;;;;25.19;23.48;101541.28;5118474;28;834;-25
2020/12/02 07:32:55;;;;;;;;;;;;;;;25.13;23.82;101533.78;5118513;28;840;-27
2020/12/02 07:35:23;;;;;;;;;;;;;;;25.27;23.76;101529.75;5118079;28;1153;-25
2020/12/02 07:37:48;;;;;;;;;;;;;;;25.33;23.67;101539.06;5118393;28;767;-26
2020/12/02 07:40:23;;;;;;;;;;;;;;;25.31;23.65;101542.75;5117747;28;1956;-26
2020/12/02 07:42:48;;;;;;;;;;;;;;;25.31;23.77;101540.06;5116207;28;846;-27
2020/12/02 07:45:14;;;;;;;;;;;;;;;25.39;23.69;101542.00;5116916;28;731;-27
2020/12/02 07:47:58;;;;;;;;;;;;;;;25.31;24.06;101542.75;5117780;28;549;-27
2020/12/02 07:50:37;;;;;;;;;;;;;;;25.23;24.11;101556.13;5116527;28;735;-25
2020/12/02 07:53:04;;;;;;;;;;;;;;;25.34;24.00;101556.94;5117051;28;747;-37
2020/12/02 07:55:37;;;;;;;;;;;;;;;25.42;23.81;101552.47;5109153;28;997;-27
2020/12/02 07:58:02;;;;;;;;;;;;;;;25.38;24.03;101547.53;5097142;28;808;-24
2020/12/02 08:00:27;;;;;;;;;;;;;;;25.38;23.86;101553.78;5096290;28;1901;-27
2020/12/02 08:02:53;;;;;;;;;;;;;;;25.43;24.00;101547.94;5096645;28;855;-25
2020/12/02 08:05:42;;;;;;;;;;;;;;;25.40;24.19;101550.94;5097334;28;763;-23
2020/12/02 08:08:07;;;;;;;;;;;;;;;26.10;23.32;101546.72;5096119;28;764;-24
2020/12/02 08:10:33;;;;;;;;;;;;;;;25.98;23.47;101550.66;5104767;28;945;-23
2020/12/02 08:13:05;;;;;;;;;;;;;;;25.59;23.98;101562.56;5117287;28;811;-24
2020/12/02 08:15:40;;;;;;;;;;;;;;;26.17;23.36;101560.44;5117564;28;815;-37
2020/12/02 08:18:14;;;;;;;;;;;;;;;26.54;22.94;101555.81;5115971;28;1414;-25
2020/12/02 08:20:40;;;;;;;;;;;;;;;26.57;22.61;101552.81;5116772;28;1909;-33
2020/12/02 08:23:09;;;;;;;;;;;;;;;25.98;23.32;101554.22;5117556;28;834;-37
2020/12/02 08:25:39;;;;;;;;;;;;;;;26.15;23.31;101549.81;5107722;28;1025;-40
2020/12/02 08:28:08;;;;;;;;;;;;;;;26.75;22.64;101558.13;5096259;28;779;-24
2020/12/02 08:30:33;;;;;;;;;;;;;;;27.00;22.27;101554.69;5096811;28;808;-24
2020/12/02 08:33:03;;;;;;;;;;;;;;;26.76;22.63;101549.00;5096733;28;824;-24
2020/12/02 08:35:30;;;;;;;;;;;;;;;27.01;22.37;101556.38;5103323;28;1324;-25
2020/12/02 08:37:56;;;;;;;;;;;;;;;27.06;22.28;101553.22;5117063;28;753;-24
2020/12/02 08:40:26;;;;;;;;;;;;;;;26.67;22.43;101547.28;5116828;28;1905;-27
2020/12/02 08:42:51;;;;;;;;;;;;;;;26.12;23.39;101555.50;5116504;28;827;-39
2020/12/02 08:45:18;;;;;;;;;;;;;;;26.94;22.55;101540.00;5117108;28;787;-25
2020/12/02 08:47:43;;;;;;;;;;;;;;;27.32;21.84;101550.44;5116671;28;838;-26
2020/12/02 08:50:15;;;;;;;;;;;;;;;27.40;21.75;101544.19;5116430;28;767;-25
2020/12/02 08:52:40;;;;;;;;;;;;;;;26.50;23.04;101546.34;5115361;28;2022;-41
2020/12/02 08:55:06;;;;;;;;;;;;;;;25.60;20.86;101548.94;5111389;28;1001;-37
2020/12/02 08:57:31;;;;;;;;;;;;;;;22.99;25.75;101538.00;5096222;28;787;-36
2020/12/02 08:59:56;;;;;;;;;;;;;;;23.49;23.29;101539.00;5096529;28;1893;-26
2020/12/02 09:02:21;;;;;;;;;;;;;;;23.46;22.54;101544.66;5096154;28;823;-36
2020/12/02 09:04:48;;;;;;;;;;;;;;;23.16;23.36;101535.66;5096109;28;764;-24
2020/12/02 09:07:13;;;;;;;;;;;;;;;23.14;23.09;101534.97;5096435;28;824;-25
2020/12/02 09:09:39;;;;;;;;;;;;;;;23.11;23.03;101538.75;5096157;28;1004;-24
2020/12/02 09:12:04;;;;;;;;;;;;;;;25.33;21.45;101537.22;5116336;28;802;-24
2020/12/02 09:14:30;;;;;;;;;;;;;;;26.02;21.25;101525.09;5120401;28;772;-26
2020/12/02 09:16:55;;;;;;;;;;;;;;;26.48;21.10;101534.84;5120657;28;811;-24
2020/12/02 09:19:20;;;;;;;;;;;;;;;26.69;21.35;101537.19;5120203;28;1282;-36
2020/12/02 09:21:46;;;;;;;;;;;;;;;26.92;21.07;101536.59;5120105;28;1909;-25
2020/12/02 09:24:12;;;;;;;;;;;;;;;27.07;20.97;101533.31;5119333;28;1025;-39
2020/12/02 09:26:38;;;;;;;;;;;;;;;26.57;22.66;101531.22;5120164;28;945;-27
2020/12/02 09:29:03;;;;;;;;;;;;;;;26.25;22.96;101521.88;5120490;28;766;-39
2020/12/02 09:31:29;;;;;;;;;;;;;;;26.30;22.91;101522.25;5120618;28;766;-25
2020/12/02 09:33:55;;;;;;;;;;;;;;;26.57;22.54;101517.72;5120050;27;805;-29
2020/12/02 09:36:20;;;;;;;;;;;;;;;26.70;22.75;101525.38;5120211;28;1217;-31
2020/12/02 09:38:46;;;;;;;;;;;;;;;26.55;22.76;101517.03;5120360;28;771;-25
2020/12/02 09:41:14;;;;;;;;;;;;;;;26.20;23.55;101525.06;5119781;28;1909;-34
2020/12/02 09:43:40;;;;;;;;;;;;;;;25.96;23.64;101525.72;5120008;28;775;-28
2020/12/02 09:46:06;;;;;;;;;;;;;;;26.48;23.22;101530.31;5120217;28;842;-40
2020/12/02 09:48:32;;;;;;;;;;;;;;;26.90;22.43;101523.28;5119836;28;767;-36
2020/12/02 09:50:57;;;;;;;;;;;;;;;26.73;22.88;101522.34;5119525;27;519;-27
2020/12/02 09:53:29;;;;;;;;;;;;;;;26.27;23.59;101523.44;5120146;28;924;-25
2020/12/02 09:55:54;;;;;;;;;;;;;;;27.16;22.31;101521.50;5120755;27;1287;-36
2020/12/02 09:58:19;;;;;;;;;;;;;;;27.31;22.04;101523.59;5131424;27;841;-28
2020/12/02 10:00:45;;;;;;;;;;;;;;;26.47;23.23;101527.78;5140408;27;1905;-25
2020/12/02 10:03:28;;;;;;;;;;;;;;;26.00;23.99;101519.84;5139962;27;818;-35
2020/12/02 10:06:15;;;;;;;;;;;;;;;26.83;22.73;101508.72;5140943;27;838;-35
2020/12/02 10:08:49;;;;;;;;;;;;;;;26.94;22.63;101515.69;5139176;27;775;-35
2020/12/02 10:11:20;;;;;;;;;;;;;;;26.86;22.97;101502.16;5125647;27;1019;-33
2020/12/02 10:13:45;;;;;;;;;;;;;;;27.40;22.31;101509.06;5119676;28;835;-44
2020/12/02 10:16:11;;;;;;;;;;;;;;;27.04;22.88;101504.78;5119666;28;794;-42
2020/12/02 10:18:54;;;;;;;;;;;;;;;26.59;23.51;101509.47;5118914;28;1232;-29
2020/12/02 10:21:20;;;;;;;;;;;;;;;26.67;23.44;101514.91;5119354;28;1974;-33
2020/12/02 10:23:51;;;;;;;;;;;;;;;27.14;22.90;101518.16;5119340;28;810;-35
2020/12/02 10:26:16;;;;;;;;;;;;;;;27.23;22.71;101525.25;5118026;28;1067;-25
2020/12/02 10:28:42;;;;;;;;;;;;;;;26.81;23.42;101516.13;5119537;28;783;-31
2020/12/02 10:31:07;;;;;;;;;;;;;;;26.67;23.31;101516.75;5119116;28;751;-30
2020/12/02 10:33:36;;;;;;;;;;;;;;;25.89;24.40;101517.41;5119231;28;807;-28
2020/12/02 10:36:01;;;;;;;;;;;;;;;26.23;24.26;101518.47;5118866;28;1126;-40
2020/12/02 10:38:26;;;;;;;;;;;;;;;26.54;23.70;101523.44;5118948;28;815;-42
2020/12/02 10:40:53;;;;;;;;;;;;;;;27.05;23.11;101514.56;5118634;28;1971;-39
2020/12/02 10:43:38;;;;;;;;;;;;;;;26.06;24.40;101523.75;5117949;28;847;-42
2020/12/02 10:46:03;;;;;;;;;;;;;;;26.20;24.23;101526.88;5118071;28;763;-29
2020/12/02 10:48:28;;;;;;;;;;;;;;;26.89;23.13;101520.75;5117766;28;779;-27
2020/12/02 10:50:54;;;;;;;;;;;;;;;26.42;23.20;101525.56;5118818;28;731;-27
2020/12/02 10:53:20;;;;;;;;;;;;;;;26.46;23.59;101524.22;5117556;28;806;-30
2020/12/02 10:55:46;;;;;;;;;;;;;;;27.09;22.25;101526.72;5118197;28;949;-33
2020/12/02 10:58:18;;;;;;;;;;;;;;;27.02;22.70;101531.09;5118690;28;821;-44
2020/12/02 11:00:44;;;;;;;;;;;;;;;27.18;22.57;101521.34;5118279;28;1901;-27
2020/12/02 11:03:13;;;;;;;;;;;;;;;26.61;23.19;101516.38;5116830;28;1281;-28
2020/12/02 11:05:38;;;;;;;;;;;;;;;26.27;22.81;101522.56;5118582;28;755;-23
2020/12/02 11:08:24;;;;;;;;;;;;;;;23.90;25.18;101519.25;5118174;28;795;-25
2020/12/02 11:11:07;;;;;;;;;;;;;;;24.12;23.69;101511.88;5086040;28;1175;-26
2020/12/02 11:13:38;;;;;;;;;;;;;;;24.81;23.82;101514.38;5118239;28;907;-33
2020/12/02 11:16:14;;;;;;;;;;;;;;;24.94;23.47;101512.22;5121569;27;1554;-23
2020/12/02 11:18:39;;;;;;;;;;;;;;;25.00;23.93;101518.00;5128264;27;1173;-23
2020/12/02 11:21:08;;;;;;;;;;;;;;;25.18;23.17;101513.50;5138877;27;1918;-23
2020/12/02 11:23:52;;;;;;;;;;;;;;;24.91;22.74;101507.13;5138934;27;778;-29
2020/12/02 11:26:30;;;;;;;;;;;;;;;23.77;23.23;101503.44;5124225;27;932;-35
2020/12/02 11:28:56;;;;;;;;;;;;;;;24.77;23.09;101504.91;5118086;28;854;-39
2020/12/02 11:31:36;;;;;;;;;;;;;;;25.00;22.41;101504.53;5117676;28;802;-39
2020/12/02 11:34:11;;;;;;;;;;;;;;;25.25;22.55;101502.97;5117894;28;767;-32
2020/12/02 11:36:55;;;;;;;;;;;;;;;24.61;23.68;101503.69;5117936;28;1146;-29
2020/12/02 11:39:28;;;;;;;;;;;;;;;24.47;22.53;101502.34;5117407;28;486;-38
2020/12/02 11:41:54;;;;;;;;;;;;;;;24.42;23.29;101497.38;5116131;28;997;-27
2020/12/02 11:44:41;;;;;;;;;;;;;;;25.02;22.06;101499.88;5118047;28;767;-34
2020/12/02 11:47:18;;;;;;;;;;;;;;;25.56;22.81;101501.75;5115914;28;949;-32
2020/12/02 11:49:45;;;;;;;;;;;;;;;26.31;22.92;101496.97;5116452;28;752;-27
2020/12/02 11:52:15;;;;;;;;;;;;;;;25.96;23.36;101487.97;5117674;28;881;-42
2020/12/02 11:54:41;;;;;;;;;;;;;;;25.84;23.56;101485.50;5116031;28;1004;-42
2020/12/02 11:57:06;;;;;;;;;;;;;;;26.29;23.21;101491.72;5117741;28;726;-29
2020/12/02 11:59:34;;;;;;;;;;;;;;;26.13;23.36;101492.47;5116315;28;1976;-31
2020/12/02 12:02:12;;;;;;;;;;;;;;;26.14;23.54;101502.25;5117021;28;831;-29
2020/12/02 12:04:46;;;;;;;;;;;;;;;25.84;24.27;101499.00;5117475;28;747;-38
2020/12/02 12:07:12;;;;;;;;;;;;;;;25.68;24.80;101497.88;5116442;28;819;-34
2020/12/02 12:09:40;;;;;;;;;;;;;;;26.79;23.03;101488.47;5117261;28;807;-32
2020/12/02 12:12:32;;;;;;;;;;;;;;;26.83;23.14;101492.53;5096892;28;790;-29
2020/12/02 12:15:16;;;;;;;;;;;;;;;26.32;23.99;101492.41;5081095;28;1279;-38
2020/12/02 12:17:42;;;;;;;;;;;;;;;26.17;24.38;101488.44;5095061;28;1086;-33
2020/12/02 12:20:18;;;;;;;;;;;;;;;26.09;24.58;101485.69;5097246;28;1976;-40
2020/12/02 12:22:48;;;;;;;;;;;;;;;26.27;24.43;101487.50;5095388;28;819;-33
2020/12/02 12:25:15;;;;;;;;;;;;;;;26.50;24.00;101478.88;5094849;28;974;-30
2020/12/02 12:27:41;;;;;;;;;;;;;;;27.14;23.35;101485.75;5096890;28;768;-39
2020/12/02 12:30:06;;;;;;;;;;;;;;;27.59;22.59;101486.28;5097201;28;744;-33
2020/12/02 12:32:43;;;;;;;;;;;;;;;27.08;22.84;101481.84;5096450;28;810;-40
2020/12/02 12:35:17;;;;;;;;;;;;;;;26.48;23.88;101475.50;5102649;28;1131;-42
2020/12/02 12:37:46;;;;;;;;;;;;;;;25.34;24.35;101479.66;5116966;28;830;-32
2020/12/02 12:40:17;;;;;;;;;;;;;;;25.75;21.59;101484.63;5115276;28;1901;-30
2020/12/02 12:42:43;;;;;;;;;;;;;;;25.50;20.92;101481.69;5116728;28;822;-32
2020/12/02 12:45:12;;;;;;;;;;;;;;;25.31;20.96;101491.59;5115702;28;755;-35
2020/12/02 12:47:39;;;;;;;;;;;;;;;23.94;23.07;101485.75;5117357;28;759;-33
2020/12/02 12:50:05;;;;;;;;;;;;;;;25.09;22.49;101487.47;5120362;28;790;-27
2020/12/02 12:52:31;;;;;;;;;;;;;;;25.97;21.69;101484.28;5121367;27;795;-29
2020/12/02 12:54:57;;;;;;;;;;;;;;;26.27;22.14;101491.06;5120256;28;1000;-40
2020/12/02 12:57:24;;;;;;;;;;;;;;;25.92;22.67;101496.34;5121208;28;748;-32
2020/12/02 12:59:53;;;;;;;;;;;;;;;26.22;23.02;101492.53;5120549;28;1961;-30